Time;durP1;ratioP1;P1;durP2;ratioP2;P2;SDS_P1;SDS_P2;PMS_P1;PMS_P2;Temp;Humidity;BMP_temperature;BMP_pressure;BME280_temperature;BME280_humidity;BME280_pressure;Samples;Min_cycle;Max_cycle;Signal;HPM_P1;HPM_P2
2021/12/27 00:00:52;;;;;;;13.38;5.75;;;;;;;6.17;100.00;97654.88;5006168;28;20464;-69
2021/12/27 00:03:17;;;;;;;10.77;5.38;;;;;;;6.19;100.00;97656.34;5006417;28;20029;-69
2021/12/27 00:05:42;;;;;;;8.73;5.43;;;;;;;6.16;100.00;97654.06;5012552;28;20026;-69
2021/12/27 00:08:08;;;;;;;12.05;6.25;;;;;;;6.00;100.00;97639.16;4991483;28;20030;-69
2021/12/27 00:10:33;;;;;;;12.77;6.20;;;;;;;6.12;100.00;97652.78;5012589;28;20045;-69
2021/12/27 00:12:59;;;;;;;10.13;5.43;;;;;;;6.11;100.00;97653.84;5015064;28;20030;-69
2021/12/27 00:15:25;;;;;;;12.48;6.00;;;;;;;6.12;100.00;97652.78;5018481;28;20106;-69
2021/12/27 00:17:51;;;;;;;10.27;6.07;;;;;;;6.09;100.00;97650.53;5015251;28;20483;-70
2021/12/27 00:20:19;;;;;;;12.02;6.30;;;;;;;5.98;100.00;97619.72;5021360;28;20036;-70
2021/12/27 00:22:46;;;;;;;13.52;7.25;;;;;;;5.90;100.00;97618.03;5009243;28;20033;-70
2021/12/27 00:25:13;;;;;;;13.07;6.93;;;;;;;6.09;100.00;97648.66;5006756;28;20157;-69
2021/12/27 00:27:38;;;;;;;13.07;6.75;;;;;;;6.07;100.00;97649.88;5006757;28;20040;-69
2021/12/27 00:30:05;;;;;;;11.50;6.70;;;;;;;6.11;100.00;97645.78;5015200;28;20022;-69
2021/12/27 00:32:33;;;;;;;13.23;7.03;;;;;;;6.08;100.00;97643.50;5010581;28;20116;-70
2021/12/27 00:34:58;;;;;;;10.43;6.07;;;;;;;6.04;100.00;97639.56;5024398;28;20026;-69
2021/12/27 00:37:23;;;;;;;11.75;6.13;;;;;;;6.05;100.00;97646.56;5013870;28;20041;-69
2021/12/27 00:39:49;;;;;;;13.07;6.90;;;;;;;6.02;100.00;97639.75;5013754;28;20087;-69
2021/12/27 00:42:15;;;;;;;14.57;6.32;;;;;;;6.04;100.00;97639.56;5017316;28;20071;-69
2021/12/27 00:44:40;;;;;;;12.98;7.50;;;;;;;6.02;100.00;97645.13;5014252;28;20037;-70
2021/12/27 00:47:06;;;;;;;14.20;7.78;;;;;;;5.84;100.00;97604.56;4999774;28;20029;-69
2021/12/27 00:49:31;;;;;;;13.10;7.13;;;;;;;6.02;100.00;97628.19;5014856;28;20033;-69
2021/12/27 00:51:56;;;;;;;11.82;7.53;;;;;;;6.05;100.00;97633.16;5013817;28;20038;-69
2021/12/27 00:54:22;;;;;;;14.02;7.57;;;;;;;6.00;100.00;97625.72;5010440;28;20103;-70
2021/12/27 00:56:47;;;;;;;13.35;7.57;;;;;;;5.91;100.00;97624.22;5021768;28;20104;-69
2021/12/27 00:59:13;;;;;;;15.43;8.05;;;;;;;5.98;100.00;97614.34;5019004;28;20057;-69
2021/12/27 01:01:39;;;;;;;12.05;6.90;;;;;;;6.08;100.00;97630.09;4996149;28;20044;-69
2021/12/27 01:04:06;;;;;;;12.68;6.47;;;;;;;5.98;100.00;97619.72;5014165;28;20030;-69
2021/12/27 01:06:31;;;;;;;14.68;6.70;;;;;;;6.07;100.00;97614.97;5018109;28;20100;-69
2021/12/27 01:08:56;;;;;;;11.48;6.57;;;;;;;5.99;100.00;97613.31;5010537;28;20036;-69
2021/12/27 01:11:35;;;;;;;12.30;7.43;;;;;;;5.93;100.00;97623.00;5010386;28;20037;-69
2021/12/27 01:14:10;;;;;;;14.70;7.38;;;;;;;6.03;100.00;97644.09;5009705;28;20029;-70
2021/12/27 01:16:35;;;;;;;14.10;8.05;;;;;;;6.00;100.00;97639.16;5010381;28;20324;-70
2021/12/27 01:19:01;;;;;;;17.50;8.20;;;;;;;5.96;100.00;97643.25;5014140;28;20499;-69
2021/12/27 01:21:27;;;;;;;14.23;8.55;;;;;;;5.98;100.00;97643.06;5014009;28;20539;-69
2021/12/27 01:23:55;;;;;;;16.23;7.18;;;;;;;5.86;100.00;97611.38;5000891;28;20165;-69
2021/12/27 01:26:21;;;;;;;13.90;7.80;;;;;;;6.11;100.00;97630.50;5018243;28;20022;-69
2021/12/27 01:28:46;;;;;;;12.75;7.32;;;;;;;6.16;100.00;97632.56;5010233;28;20494;-69
2021/12/27 01:31:12;;;;;;;14.65;7.00;;;;;;;5.90;100.00;97609.16;5017015;28;20057;-69
2021/12/27 01:33:39;;;;;;;14.15;7.68;;;;;;;5.92;100.00;97620.47;5011170;28;20490;-69
2021/12/27 01:36:05;;;;;;;13.35;7.95;;;;;;;6.05;100.00;97631.31;5014625;28;20073;-69
2021/12/27 01:38:34;;;;;;;14.48;7.55;;;;;;;6.02;100.00;97630.88;5016811;28;20076;-69
2021/12/27 01:41:00;;;;;;;14.63;8.68;;;;;;;6.04;100.00;97636.88;5010540;28;20083;-69
2021/12/27 01:43:29;;;;;;;14.48;7.95;;;;;;;6.10;100.00;97633.38;5018310;28;20135;-69
2021/12/27 01:46:04;;;;;;;13.00;7.90;;;;;;;5.98;100.00;97614.34;5008824;28;20026;-69
2021/12/27 01:48:36;;;;;;;13.80;8.13;;;;;;;6.08;100.00;97633.59;5010994;28;20034;-69
2021/12/27 01:51:03;;;;;;;14.35;7.97;;;;;;;6.12;100.00;97636.69;5017541;28;20052;-69
2021/12/27 01:53:32;;;;;;;13.63;7.20;;;;;;;6.13;100.00;97638.31;5020959;28;20100;-69
2021/12/27 01:55:57;;;;;;;16.17;7.53;;;;;;;6.15;100.00;97630.91;5018983;28;20492;-69
2021/12/27 01:58:24;;;;;;;13.77;7.80;;;;;;;6.11;100.00;97621.63;5014864;28;20072;-69
2021/12/27 02:00:53;;;;;;;11.93;6.93;;;;;;;6.01;100.00;97616.63;5010403;28;20121;-70
2021/12/27 02:03:22;;;;;;;12.65;7.00;;;;;;;6.19;100.00;97637.53;5018604;28;20068;-69
2021/12/27 02:05:48;;;;;;;12.93;6.95;;;;;;;5.93;100.00;97595.31;5012590;28;20034;-69
2021/12/27 02:08:13;;;;;;;13.52;7.78;;;;;;;6.05;100.00;97617.03;5015324;28;20090;-69
2021/12/27 02:10:39;;;;;;;13.10;7.38;;;;;;;6.01;100.00;97622.00;5011575;28;20390;-69
2021/12/27 02:13:05;;;;;;;16.67;8.45;;;;;;;5.86;100.00;97611.38;5009729;28;20022;-69
2021/12/27 02:15:30;;;;;;;13.38;7.95;;;;;;;5.96;100.00;97631.69;4993074;28;20023;-69
2021/12/27 02:17:56;;;;;;;14.88;8.32;;;;;;;6.00;100.00;97614.13;5005219;28;20109;-69
2021/12/27 02:20:27;;;;;;;13.63;7.68;;;;;;;6.03;100.00;97632.53;5013428;28;20030;-69
2021/12/27 02:22:55;;;;;;;15.30;7.20;;;;;;;6.01;100.00;97619.31;4993361;28;20018;-70
2021/12/27 02:25:21;;;;;;;12.57;7.57;;;;;;;5.86;100.00;97607.88;5007512;28;20025;-69
2021/12/27 02:27:47;;;;;;;15.00;7.70;;;;;;;5.97;100.00;97618.06;4996859;28;20029;-69
2021/12/27 02:30:21;;;;;;;12.63;7.15;;;;;;;5.91;100.00;97590.13;5006986;28;20030;-69
2021/12/27 02:32:49;;;;;;;10.98;6.63;;;;;;;6.12;100.00;97621.41;5001996;28;20563;-69
2021/12/27 02:35:37;;;;;;;13.38;7.07;;;;;;;6.10;100.00;97611.88;5017070;28;20026;-69
2021/12/27 02:38:04;;;;;;;13.00;7.30;;;;;;;6.09;100.00;97604.88;5009748;28;20112;-69
2021/12/27 02:40:31;;;;;;;17.02;7.15;;;;;;;6.12;100.00;97609.84;5015070;28;20280;-68
2021/12/27 02:43:10;;;;;;;11.30;6.47;;;;;;;6.05;100.00;97608.97;5018475;28;20025;-69
2021/12/27 02:45:42;;;;;;;14.73;6.72;;;;;;;6.05;100.00;97607.16;5008823;28;20021;-69
2021/12/27 02:48:08;;;;;;;11.30;6.25;;;;;;;6.09;100.00;97604.88;5011366;28;20077;-69
2021/12/27 02:50:35;;;;;;;12.88;6.43;;;;;;;6.03;100.00;97589.59;5012491;28;20078;-69
2021/12/27 02:53:02;;;;;;;11.27;5.63;;;;;;;6.13;100.00;97595.34;5015626;28;20053;-69
2021/12/27 02:55:27;;;;;;;11.63;6.97;;;;;;;6.11;100.00;97609.00;5014482;28;20053;-69
2021/12/27 02:57:53;;;;;;;14.88;7.13;;;;;;;6.09;100.00;97620.97;5012767;28;20439;-69
2021/12/27 03:00:27;;;;;;;13.32;7.20;;;;;;;6.01;100.00;97619.31;5010274;28;20096;-68
2021/12/27 03:02:53;;;;;;;12.88;7.43;;;;;;;6.05;100.00;97604.47;4991140;28;20037;-69
2021/12/27 03:05:21;;;;;;;12.23;6.78;;;;;;;5.96;100.00;97583.38;5016865;28;20423;-69
2021/12/27 03:07:48;;;;;;;13.13;7.05;;;;;;;6.09;100.00;97610.25;5019375;28;20034;-68
2021/12/27 03:10:17;;;;;;;11.68;7.10;;;;;;;6.07;100.00;97606.94;5183612;22;20067;-73
2021/12/27 03:12:43;;;;;;;14.43;7.47;;;;;;;5.96;100.00;97591.44;5033723;28;20461;-74
2021/12/27 03:15:10;;;;;;;10.60;6.25;;;;;;;6.10;100.00;97596.63;5035721;28;20025;-74
2021/12/27 03:17:36;;;;;;;12.48;6.80;;;;;;;6.12;100.00;97596.41;5033332;28;20026;-74
2021/12/27 03:20:07;;;;;;;13.57;7.53;;;;;;;6.01;100.00;97607.75;5034239;28;20039;-74
2021/12/27 03:22:32;;;;;;;11.32;7.00;;;;;;;6.02;100.00;97604.03;5032274;28;20029;-74
2021/12/27 03:24:58;;;;;;;13.73;6.95;;;;;;;6.04;100.00;97586.69;5032068;28;20043;-74
2021/12/27 03:27:24;;;;;;;11.80;6.18;;;;;;;6.09;100.00;97596.81;5032448;28;20029;-74
2021/12/27 03:29:49;;;;;;;12.70;6.85;;;;;;;6.04;100.00;97580.50;5031527;28;20422;-74
2021/12/27 03:32:15;;;;;;;9.70;5.95;;;;;;;6.05;100.00;97583.00;5035049;28;20424;-74
2021/12/27 03:34:52;;;;;;;10.93;6.40;;;;;;;6.12;100.00;97593.72;5035959;28;20041;-74
2021/12/27 03:37:18;;;;;;;12.63;6.38;;;;;;;6.07;100.00;97588.94;5031692;28;20087;-74
2021/12/27 03:39:43;;;;;;;9.73;5.82;;;;;;;6.14;100.00;97595.16;5038297;28;20112;-74
2021/12/27 03:42:09;;;;;;;10.85;6.50;;;;;;;6.10;100.00;97590.41;5011916;28;20033;-74
2021/12/27 03:44:34;;;;;;;9.88;5.82;;;;;;;6.00;100.00;97580.09;5030548;28;20478;-74
2021/12/27 03:46:59;;;;;;;15.23;7.18;;;;;;;5.98;100.00;97595.56;5028387;28;20044;-74
2021/12/27 03:49:25;;;;;;;12.45;6.55;;;;;;;6.00;100.00;97585.47;5036689;28;20394;-74
2021/12/27 03:51:50;;;;;;;11.52;6.53;;;;;;;6.00;100.00;97584.59;5032056;28;20029;-74
2021/12/27 03:54:15;;;;;;;12.50;6.60;;;;;;;5.85;100.00;97574.84;5036806;28;20033;-74
2021/12/27 03:56:40;;;;;;;14.05;7.68;;;;;;;5.99;100.00;97596.38;5030577;28;20471;-73
2021/12/27 03:59:21;;;;;;;11.75;6.82;;;;;;;5.98;100.00;97592.06;5030130;28;20036;-74
2021/12/27 04:01:47;;;;;;;13.38;7.10;;;;;;;5.95;100.00;97579.03;5014520;28;20478;-74
2021/12/27 04:04:12;;;;;;;10.43;6.30;;;;;;;5.91;100.00;97565.97;5032000;28;20041;-74
2021/12/27 04:06:38;;;;;;;13.73;6.38;;;;;;;6.09;100.00;97594.13;5017125;28;20033;-74
2021/12/27 04:09:03;;;;;;;13.25;6.25;;;;;;;6.15;100.00;97586.06;5035992;28;20037;-74
2021/12/27 04:11:29;;;;;;;10.00;5.78;;;;;;;6.07;100.00;97572.84;5028997;28;20413;-74
2021/12/27 04:13:56;;;;;;;9.40;5.88;;;;;;;6.19;100.00;97583.00;5042303;28;20021;-71
2021/12/27 04:16:22;;;;;;;11.88;5.72;;;;;;;6.06;100.00;97573.06;5038399;28;20026;-74
2021/12/27 04:18:47;;;;;;;7.85;4.88;;;;;;;6.23;100.00;97587.72;5035209;28;20055;-73
2021/12/27 04:21:13;;;;;;;8.85;5.35;;;;;;;6.27;100.00;97582.78;5036900;28;20463;-74
2021/12/27 04:23:38;;;;;;;9.82;5.70;;;;;;;6.20;100.00;97592.69;5033997;28;20037;-73
2021/12/27 04:26:04;;;;;;;8.88;4.88;;;;;;;6.04;100.00;97584.00;5032684;28;20021;-74
2021/12/27 04:28:29;;;;;;;8.77;5.55;;;;;;;5.93;100.00;97573.84;5024940;28;20394;-74
2021/12/27 04:30:54;;;;;;;11.82;6.50;;;;;;;5.89;100.00;97572.59;5033504;28;20159;-74
2021/12/27 04:33:20;;;;;;;12.80;7.68;;;;;;;5.95;100.00;97585.25;5037011;28;20052;-73
2021/12/27 04:35:45;;;;;;;10.32;6.70;;;;;;;5.87;100.00;97563.94;5033760;28;20026;-74
2021/12/27 04:38:10;;;;;;;13.20;6.85;;;;;;;5.90;100.00;97574.25;5030298;28;20029;-74
2021/12/27 04:40:38;;;;;;;11.85;6.45;;;;;;;5.95;100.00;97579.88;5027732;28;20033;-74
2021/12/27 04:43:08;;;;;;;9.40;5.93;;;;;;;6.12;100.00;97578.44;5029830;28;20100;-71
2021/12/27 04:45:33;;;;;;;10.07;5.78;;;;;;;6.18;100.00;97582.16;5032408;28;20446;-71
2021/12/27 04:47:58;;;;;;;9.18;5.43;;;;;;;6.18;100.00;97584.00;5027717;28;20021;-74
2021/12/27 04:50:25;;;;;;;8.95;5.50;;;;;;;6.13;100.00;97560.44;5040488;28;20033;-74
2021/12/27 04:52:53;;;;;;;9.02;4.78;;;;;;;6.13;100.00;97565.81;5028832;28;20120;-74
2021/12/27 04:55:20;;;;;;;7.30;4.53;;;;;;;6.23;100.00;97581.53;5047910;28;20015;-73
2021/12/27 04:57:45;;;;;;;7.60;4.25;;;;;;;6.14;100.00;97575.56;5051798;28;20034;-73
2021/12/27 05:00:11;;;;;;;10.70;4.80;;;;;;;5.98;100.00;97559.84;5048107;28;20037;-73
2021/12/27 05:02:37;;;;;;;8.68;5.10;;;;;;;6.08;100.00;97571.84;5057753;28;20028;-73
2021/12/27 05:05:02;;;;;;;8.68;4.55;;;;;;;5.99;100.00;97561.50;5054790;28;20096;-73
2021/12/27 05:07:28;;;;;;;11.38;5.07;;;;;;;6.07;100.00;97574.72;5039256;28;20013;-73
2021/12/27 05:09:53;;;;;;;12.63;5.85;;;;;;;6.04;100.00;97556.34;5051073;28;20029;-74
2021/12/27 05:12:18;;;;;;;9.05;5.20;;;;;;;6.11;100.00;97582.16;5053883;28;20029;-73
2021/12/27 05:14:43;;;;;;;9.02;5.53;;;;;;;6.09;100.00;97567.28;5055522;28;20064;-73
2021/12/27 05:17:09;;;;;;;10.30;5.78;;;;;;;6.15;100.00;97564.59;5060507;28;20045;-74
2021/12/27 05:19:34;;;;;;;8.60;5.05;;;;;;;6.08;100.00;97554.91;5055851;28;20025;-73
2021/12/27 05:21:59;;;;;;;8.02;5.25;;;;;;;6.20;100.00;97566.66;5060175;28;20025;-73
2021/12/27 05:24:27;;;;;;;7.57;4.85;;;;;;;6.19;100.00;97567.72;5065850;28;20183;-73
2021/12/27 05:26:52;;;;;;;8.02;4.53;;;;;;;6.23;100.00;97565.44;5047308;28;20298;-73
2021/12/27 05:29:18;;;;;;;6.78;4.13;;;;;;;6.21;100.00;97557.59;5054762;28;20017;-73
2021/12/27 05:31:43;;;;;;;7.93;3.80;;;;;;;6.25;100.00;97566.88;5056630;28;20033;-73
2021/12/27 05:34:10;;;;;;;5.93;3.55;;;;;;;6.08;100.00;97549.53;5039628;28;20018;-73
2021/12/27 05:36:36;;;;;;;7.15;4.38;;;;;;;6.18;100.00;97562.53;5049895;28;20029;-73
2021/12/27 05:39:02;;;;;;;5.55;3.78;;;;;;;6.14;100.00;97560.25;5048219;28;20032;-73
2021/12/27 05:41:27;;;;;;;7.07;4.68;;;;;;;6.10;100.00;97566.25;5027323;28;20083;-74
2021/12/27 05:43:53;;;;;;;9.05;4.63;;;;;;;6.07;100.00;97563.97;5017698;28;20065;-73
2021/12/27 05:46:18;;;;;;;7.07;4.28;;;;;;;6.06;100.00;97556.97;5035121;28;20037;-73
2021/12/27 05:48:43;;;;;;;6.50;4.30;;;;;;;6.13;100.00;97563.13;5037679;28;20083;-74
2021/12/27 05:51:09;;;;;;;10.60;4.80;;;;;;;6.19;100.00;97562.34;5033786;28;20048;-73
2021/12/27 05:53:34;;;;;;;7.43;4.55;;;;;;;6.18;100.00;97555.28;5036408;28;20021;-74
2021/12/27 05:55:59;;;;;;;7.25;4.32;;;;;;;6.08;100.00;97557.59;5040392;28;20021;-73
2021/12/27 05:58:25;;;;;;;7.55;4.70;;;;;;;6.16;100.00;97554.69;5038468;28;20029;-74
2021/12/27 06:00:51;;;;;;;6.95;4.68;;;;;;;6.04;100.00;97543.72;5019148;28;20063;-74
2021/12/27 06:03:17;;;;;;;10.63;4.82;;;;;;;5.95;100.00;97539.59;5031728;28;20356;-74
2021/12/27 06:05:42;;;;;;;8.23;4.55;;;;;;;6.13;100.00;97533.59;5035181;28;20119;-74
2021/12/27 06:08:07;;;;;;;9.13;4.32;;;;;;;6.18;100.00;97549.91;5035351;28;20383;-74
2021/12/27 06:10:33;;;;;;;6.05;3.38;;;;;;;6.17;100.00;97528.66;5037091;28;20399;-73
2021/12/27 06:12:58;;;;;;;5.00;3.00;;;;;;;6.07;100.00;97511.09;5044352;28;20063;-73
2021/12/27 06:15:24;;;;;;;4.60;3.10;;;;;;;6.22;100.00;97518.94;5038180;28;20123;-76
2021/12/27 06:17:49;;;;;;;3.88;3.10;;;;;;;6.31;100.00;97522.25;5027064;28;20045;-75
2021/12/27 06:20:16;;;;;;;4.63;2.90;;;;;;;6.28;100.00;97528.84;5032891;28;20036;-76
2021/12/27 06:22:52;;;;;;;4.05;2.80;;;;;;;6.30;100.00;97529.47;5034067;28;20029;-75
2021/12/27 06:25:17;;;;;;;5.03;3.00;;;;;;;6.22;100.00;97518.94;5013233;28;20426;-77
2021/12/27 06:27:43;;;;;;;4.47;2.65;;;;;;;6.23;100.00;97504.47;5031058;28;20034;-77
2021/12/27 06:30:12;;;;;;;4.88;2.67;;;;;;;6.39;100.00;97523.88;5033777;28;20104;-77
2021/12/27 06:32:38;;;;;;;6.32;2.58;;;;;;;6.39;100.00;97521.19;5012869;28;20036;-77
2021/12/27 06:35:05;;;;;;;4.75;2.45;;;;;;;6.31;100.00;97524.94;5033340;28;20041;-77
2021/12/27 06:37:31;;;;;;;5.03;2.55;;;;;;;6.18;100.00;97503.44;5029188;28;20034;-76
2021/12/27 06:39:57;;;;;;;2.90;2.00;;;;;;;6.22;100.00;97508.19;5032368;28;20536;-77
2021/12/27 06:42:23;;;;;;;3.20;2.00;;;;;;;6.28;100.00;97517.28;5033150;28;20033;-77
2021/12/27 06:44:48;;;;;;;3.63;2.17;;;;;;;6.24;100.00;97511.53;5035230;28;20033;-77
2021/12/27 06:47:13;;;;;;;4.82;2.33;;;;;;;6.11;100.00;97514.22;5033409;28;20084;-77
2021/12/27 06:49:39;;;;;;;4.28;2.58;;;;;;;5.90;100.00;97505.28;5018008;28;20041;-77
2021/12/27 06:52:05;;;;;;;4.55;3.00;;;;;;;5.81;100.00;97489.56;5014920;28;20056;-76
2021/12/27 06:54:30;;;;;;;4.78;3.15;;;;;;;5.93;100.00;97509.41;5016971;28;20026;-76
2021/12/27 06:56:59;;;;;;;7.80;3.28;;;;;;;5.88;100.00;97501.97;5018934;28;20025;-76
2021/12/27 06:59:26;;;;;;;4.65;2.78;;;;;;;5.94;100.00;97503.03;5038781;28;20500;-74
2021/12/27 07:01:51;;;;;;;4.85;3.30;;;;;;;5.78;100.00;97492.69;5032564;28;20032;-76
2021/12/27 07:04:16;;;;;;;5.85;3.00;;;;;;;5.81;100.00;97511.88;5033153;28;20107;-75
2021/12/27 07:06:42;;;;;;;5.47;2.90;;;;;;;5.73;100.00;97512.06;5030139;28;20025;-77
2021/12/27 07:09:07;;;;;;;4.38;2.88;;;;;;;5.66;100.00;97498.66;5013140;28;20431;-77
2021/12/27 07:11:32;;;;;;;5.13;2.67;;;;;;;5.57;100.00;97491.81;5017840;28;20033;-76
2021/12/27 07:13:58;;;;;;;7.03;3.72;;;;;;;5.53;100.00;97517.41;5011911;28;20450;-76
2021/12/27 07:16:25;;;;;;;6.55;4.07;;;;;;;5.42;100.00;97512.63;5029736;28;21693;-75
2021/12/27 07:18:51;;;;;;;7.32;4.63;;;;;;;5.21;100.00;97489.44;5014745;28;20399;-75
2021/12/27 07:21:17;;;;;;;7.85;4.63;;;;;;;5.21;100.00;97492.13;5032632;28;20025;-76
2021/12/27 07:23:44;;;;;;;7.72;5.07;;;;;;;5.26;100.00;97503.09;5010118;28;20398;-77
2021/12/27 07:26:09;;;;;;;6.55;3.40;;;;;;;5.42;100.00;97518.84;5037851;28;20021;-78
2021/12/27 07:28:34;;;;;;;5.80;3.78;;;;;;;5.50;100.00;97515.09;5020849;28;20032;-75
2021/12/27 07:31:00;;;;;;;6.05;3.83;;;;;;;5.48;100.00;97501.09;5014013;28;20025;-77
2021/12/27 07:33:25;;;;;;;6.57;3.45;;;;;;;5.55;100.00;97511.81;5032400;28;20044;-76
2021/12/27 07:35:50;;;;;;;5.78;3.47;;;;;;;5.61;100.00;97497.63;5030706;28;20475;-77
2021/12/27 07:38:15;;;;;;;6.40;3.80;;;;;;;5.77;100.00;97505.28;5032763;28;20033;-78
2021/12/27 07:40:43;;;;;;;5.50;3.75;;;;;;;5.95;100.00;97518.13;5010222;28;20034;-74
2021/12/27 07:43:08;;;;;;;6.22;3.40;;;;;;;6.17;100.00;97516.06;5029889;28;20104;-77
2021/12/27 07:45:33;;;;;;;5.07;2.95;;;;;;;6.27;100.00;97519.16;5039284;28;20056;-76
2021/12/27 07:47:59;;;;;;;3.72;2.70;;;;;;;6.33;100.00;97504.06;5037494;28;20471;-76
2021/12/27 07:50:24;;;;;;;3.95;2.67;;;;;;;6.44;100.00;97505.28;5033389;28;20036;-76
2021/12/27 07:52:51;;;;;;;5.28;3.10;;;;;;;6.48;100.00;97506.53;5036399;28;20041;-77
2021/12/27 07:55:16;;;;;;;5.15;2.83;;;;;;;6.68;100.00;97526.13;5041279;28;20052;-77
2021/12/27 07:57:42;;;;;;;5.38;3.20;;;;;;;6.64;100.00;97497.19;5037450;28;20029;-76
2021/12/27 08:00:08;;;;;;;4.10;2.75;;;;;;;6.75;100.00;97513.50;5052478;28;20084;-76
2021/12/27 08:02:34;;;;;;;4.35;2.58;;;;;;;6.86;100.00;97508.50;5055072;28;20021;-76
2021/12/27 08:04:59;;;;;;;7.25;2.72;;;;;;;6.92;100.00;97513.06;5044108;28;20030;-75
2021/12/27 08:07:25;;;;;;;3.10;2.40;;;;;;;6.80;100.00;97500.25;5053038;28;20037;-77
2021/12/27 08:09:50;;;;;;;4.43;2.90;;;;;;;6.90;100.00;97513.25;5056694;28;20056;-77
2021/12/27 08:12:16;;;;;;;4.50;2.90;;;;;;;6.97;100.00;97516.75;5051956;28;20013;-76
2021/12/27 08:14:41;;;;;;;9.38;3.10;;;;;;;7.09;100.00;97503.47;5050598;28;20029;-75
2021/12/27 08:17:06;;;;;;;5.85;2.40;;;;;;;7.27;100.00;97504.63;5052126;28;20036;-78
2021/12/27 08:19:33;;;;;;;3.70;2.58;;;;;;;7.46;100.00;97495.63;5055021;28;20129;-73
2021/12/27 08:21:58;;;;;;;3.05;2.00;;;;;;;7.74;100.00;97500.63;5044644;28;20034;-75
2021/12/27 08:24:24;;;;;;;5.25;2.38;;;;;;;8.10;97.42;97502.66;5054855;28;20029;-75
2021/12/27 08:26:49;;;;;;;6.50;2.17;;;;;;;8.24;95.47;97502.53;5050824;28;20110;-75
2021/12/27 08:29:21;;;;;;;3.30;2.08;;;;;;;8.26;93.92;97493.19;5039126;28;20110;-76
2021/12/27 08:31:46;;;;;;;3.47;2.33;;;;;;;8.23;94.12;97500.91;5030153;28;20034;-74
2021/12/27 08:34:11;;;;;;;3.78;2.42;;;;;;;8.48;94.76;97495.50;5016592;28;20036;-74
2021/12/27 08:36:37;;;;;;;4.70;2.47;;;;;;;8.29;94.19;97476.59;5032467;28;20036;-77
2021/12/27 08:39:03;;;;;;;3.47;2.60;;;;;;;8.74;93.44;97502.50;5019303;28;20494;-71
2021/12/27 08:41:29;;;;;;;6.45;2.92;;;;;;;8.89;92.22;97494.88;5036550;28;20029;-73
2021/12/27 08:44:00;;;;;;;4.25;2.15;;;;;;;8.52;93.52;97511.03;5019808;28;20108;-76
2021/12/27 08:46:26;;;;;;;4.13;2.35;;;;;;;8.44;93.75;97516.72;5024203;28;20033;-74
2021/12/27 08:48:51;;;;;;;4.82;2.35;;;;;;;8.35;95.30;97497.25;5042625;28;20052;-72
2021/12/27 08:51:16;;;;;;;4.40;2.20;;;;;;;8.38;95.19;97514.03;5033662;28;20475;-73
2021/12/27 08:53:42;;;;;;;4.57;2.75;;;;;;;8.29;95.48;97513.50;5034523;28;20060;-74
2021/12/27 08:56:07;;;;;;;4.03;2.45;;;;;;;8.04;95.85;97500.84;5043513;28;20463;-77
2021/12/27 08:58:32;;;;;;;5.15;2.88;;;;;;;8.19;95.92;97508.59;5017250;28;20037;-71
2021/12/27 09:00:57;;;;;;;5.88;2.63;;;;;;;8.15;96.56;97498.47;5034510;28;20095;-75
2021/12/27 09:03:23;;;;;;;3.22;2.30;;;;;;;8.13;96.52;97496.81;5035852;28;20108;-75
2021/12/27 09:05:48;;;;;;;4.25;2.38;;;;;;;8.14;96.41;97503.03;5030536;28;20040;-75
2021/12/27 09:08:14;;;;;;;3.38;2.20;;;;;;;8.21;96.83;97503.81;5032157;28;20471;-75
2021/12/27 09:10:39;;;;;;;4.22;2.25;;;;;;;8.36;96.20;97500.78;5032463;28;20036;-76
2021/12/27 09:13:05;;;;;;;5.97;2.75;;;;;;;8.47;94.46;97504.66;5030132;28;20089;-74
2021/12/27 09:15:32;;;;;;;10.48;3.90;;;;;;;8.69;92.86;97488.88;5033812;28;20033;-74
2021/12/27 09:17:57;;;;;;;5.38;3.10;;;;;;;8.95;90.95;97502.06;5033551;28;20618;-76
2021/12/27 09:20:25;;;;;;;4.75;2.70;;;;;;;8.93;89.67;97469.13;5019426;28;20057;-76
2021/12/27 09:22:51;;;;;;;4.13;2.47;;;;;;;9.57;88.09;97504.63;5022608;28;20071;-73
2021/12/27 09:25:16;;;;;;;5.20;2.35;;;;;;;10.34;82.91;97493.09;5038428;28;20029;-72
2021/12/27 09:27:41;;;;;;;3.38;1.77;;;;;;;11.99;75.50;97476.44;5031998;28;20033;-72
2021/12/27 09:30:07;;;;;;;1.80;1.40;;;;;;;12.03;72.56;97470.28;5035522;28;20095;-72
2021/12/27 09:32:33;;;;;;;2.20;1.38;;;;;;;11.53;74.02;97457.47;5025485;28;20414;-73
2021/12/27 09:34:58;;;;;;;2.00;1.23;;;;;;;11.68;73.57;97481.28;5012023;28;20092;-73
2021/12/27 09:37:23;;;;;;;3.53;1.73;;;;;;;13.05;68.91;97481.03;5028562;28;20045;-70
2021/12/27 09:39:55;;;;;;;3.33;1.50;;;;;;;13.73;63.75;97485.13;5025326;28;20041;-69
2021/12/27 09:42:22;;;;;;;3.17;1.98;;;;;;;13.24;64.77;97460.63;5025534;28;20491;-69
2021/12/27 09:44:48;;;;;;;3.42;1.92;;;;;;;13.00;67.02;97480.97;5026158;28;20706;-69
2021/12/27 09:47:14;;;;;;;2.67;1.83;;;;;;;14.63;61.56;97463.59;5021260;28;20478;-70
2021/12/27 09:49:40;;;;;;;2.92;1.40;;;;;;;16.22;56.25;97458.69;5019779;28;20044;-69
2021/12/27 09:52:06;;;;;;;2.92;1.80;;;;;;;16.08;55.57;97473.97;5023250;28;20037;-72
2021/12/27 09:54:31;;;;;;;3.58;1.63;;;;;;;15.45;55.94;97466.69;5024440;28;20031;-73
2021/12/27 09:56:56;;;;;;;3.42;1.50;;;;;;;14.94;58.34;97452.06;5027146;28;20029;-70
2021/12/27 09:59:23;;;;;;;2.92;1.48;;;;;;;15.37;57.89;97459.06;5014492;28;20334;-73
2021/12/27 10:01:51;;;;;;;3.08;1.63;;;;;;;15.95;55.15;97451.56;5012448;28;20022;-74
2021/12/27 10:04:17;;;;;;;4.72;1.60;;;;;;;15.88;55.46;97455.69;5030198;28;20403;-69
2021/12/27 10:06:43;;;;;;;3.33;1.55;;;;;;;15.38;57.56;97454.41;5030241;28;20029;-70
2021/12/27 10:09:08;;;;;;;2.38;1.48;;;;;;;15.83;54.59;97444.75;5035356;28;20475;-72
2021/12/27 10:11:38;;;;;;;2.47;1.33;;;;;;;15.51;55.26;97440.28;5030018;28;20036;-70
2021/12/27 10:14:15;;;;;;;3.40;1.40;;;;;;;15.86;55.53;97447.75;5033053;28;20132;-70
2021/12/27 10:16:45;;;;;;;1.90;1.23;;;;;;;17.29;51.03;97449.47;5027999;28;20034;-70
2021/12/27 10:19:11;;;;;;;1.92;1.35;;;;;;;17.95;49.12;97437.41;5003389;28;20029;-70
2021/12/27 10:21:41;;;;;;;2.50;1.23;;;;;;;18.42;47.50;97421.38;5015751;28;20471;-70
2021/12/27 10:24:14;;;;;;;2.13;1.40;;;;;;;19.59;45.36;97424.72;5025025;28;20479;-73
2021/12/27 10:26:42;;;;;;;2.55;1.50;;;;;;;19.24;45.41;97415.88;5025182;28;20037;-74
2021/12/27 10:29:11;;;;;;;1.88;1.38;;;;;;;20.14;43.57;97422.28;5028197;28;20483;-76
2021/12/27 10:31:49;;;;;;;;;;;;;;;18.49;47.10;97427.34;5017370;28;20078;-75
2021/12/27 10:34:14;;;;;;;3.03;1.67;;;;;;;17.96;47.78;97420.66;5036707;28;19917;-75
2021/12/27 10:37:16;;;;;;;3.33;1.58;;;;;;;17.42;49.44;97407.03;5011158;28;20029;-74
2021/12/27 10:39:45;;;;;;;3.33;1.60;;;;;;;16.37;51.97;97415.03;5027707;28;20402;-74
2021/12/27 10:42:13;;;;;;;2.55;1.70;;;;;;;17.87;49.25;97394.22;5037104;28;20486;-74
2021/12/27 10:44:39;;;;;;;1.85;1.60;;;;;;;16.85;50.83;97384.63;5020810;28;20409;-73
2021/12/27 10:47:27;;;;;;;4.45;1.80;;;;;;;14.47;57.29;97412.84;5039233;28;20048;-73
2021/12/27 10:49:53;;;;;;;3.33;1.83;;;;;;;13.67;60.89;97415.47;5031294;28;20105;-73
2021/12/27 10:52:19;;;;;;;3.65;2.10;;;;;;;13.30;62.10;97396.34;5048679;28;20030;-73
2021/12/27 10:54:46;;;;;;;3.78;1.65;;;;;;;13.54;61.75;97384.09;5037726;28;20033;-73
2021/12/27 10:57:25;;;;;;;2.40;1.48;;;;;;;15.95;55.57;97374.38;5058845;28;20033;-72
2021/12/27 10:59:51;;;;;;;2.17;1.77;;;;;;;17.74;50.55;97381.97;5031150;28;20031;-72
2021/12/27 11:02:17;;;;;;;2.08;1.50;;;;;;;19.04;46.54;97384.84;5035952;28;20039;-73
2021/12/27 11:04:42;;;;;;;3.03;1.60;;;;;;;19.32;46.48;97390.53;5027776;28;20033;-73
2021/12/27 11:07:08;;;;;;;1.67;1.52;;;;;;;20.75;42.65;97380.03;5033019;28;20018;-73
2021/12/27 11:09:34;;;;;;;2.72;1.80;;;;;;;19.84;44.59;97393.41;5034611;28;20044;-73
2021/12/27 11:12:00;;;;;;;2.80;1.90;;;;;;;19.53;45.50;97385.59;5038063;28;20076;-74
2021/12/27 11:14:26;;;;;;;2.63;1.40;;;;;;;20.17;44.15;97394.22;5037875;28;20024;-73
2021/12/27 11:16:53;;;;;;;2.17;1.60;;;;;;;19.23;45.91;97362.97;5034479;28;20026;-73
2021/12/27 11:19:19;;;;;;;3.13;1.88;;;;;;;19.04;45.94;97382.09;5011238;28;20602;-74
2021/12/27 11:21:49;;;;;;;2.22;1.70;;;;;;;17.33;49.92;97367.75;5029491;28;20071;-73
2021/12/27 11:24:15;;;;;;;2.90;1.85;;;;;;;18.51;47.22;97373.13;5026978;28;20024;-73
2021/12/27 11:26:42;;;;;;;2.40;1.75;;;;;;;18.80;46.87;97373.91;5024467;28;20033;-73
2021/12/27 11:29:17;;;;;;;2.78;1.65;;;;;;;18.09;48.42;97380.06;5034733;28;20053;-73